This is the latest recevied weather packets stored in our database for station/object KS4XQ. If no packets are shown the sender has not sent any weather packets the latest 10 day(s).
| Time | Temp. | Humidity | Pressure | Rain* | Wind** | Luminosity | Snow |
|---|---|---|---|---|---|---|---|
| 1777875902 | 7.22° C | 81% | 1016.6 hPa | 0 mm | - | - | - |
| 1777875600 | 7.22° C | 80% | 1016.8 hPa | 0 mm | - | - | - |
| 1777875300 | 7.78° C | 81% | 1016.8 hPa | 0 mm | - | - | - |
| 1777874703 | 7.78° C | 80% | 1016.9 hPa | 0 mm | - | - | - |
| 1777871100 | 9.44° C | 77% | 1016.8 hPa | 0 mm | - | - | - |
| 1777869000 | 10° C | 74% | 1016.7 hPa | 0 mm | - | - | - |
| 1777867802 | 10.56° C | 71% | 1017 hPa | 0 mm | - | - | - |
| 1777862701 | 11.67° C | 70% | 1016.8 hPa | 0 mm | - | - | - |
| 1777862102 | 11.67° C | 69% | 1016.8 hPa | 0 mm | - | - | - |
| 1777861504 | 11.67° C | 69% | 1016.5 hPa | 0 mm | - | - | - |
| 1777860007 | 12.22° C | 68% | 1016.4 hPa | 0 mm | - | - | - |
| 1777859102 | 12.78° C | 68% | 1016.2 hPa | 0 mm | - | - | - |
| 1777857603 | 13.33° C | 64% | 1016 hPa | 0 mm | - | - | - |
| 1777856404 | 14.44° C | 61% | 1016 hPa | 0 mm | - | - | - |
| 1777856103 | 14.44° C | 61% | 1016 hPa | 0 mm | - | - | - |
| 1777853101 | 17.22° C | 52% | 1015.5 hPa | 0 mm | - | - | - |
| 1777852201 | 17.78° C | 49% | 1015.4 hPa | 0 mm | - | - | - |
| 1777851901 | 17.78° C | 49% | 1015.4 hPa | 0 mm | - | - | - |
| 1777845002 | 19.44° C | 46% | 1015.9 hPa | 0 mm | - | - | - |
| 1777843502 | 19.44° C | 44% | 1016.1 hPa | 0 mm | - | - | - |
| 1777842006 | 19.44° C | 45% | 1016.3 hPa | 0 mm | - | - | - |
| 1777840502 | 20° C | 43% | 1016.6 hPa | 0 mm | - | - | - |
| 1777838102 | 20.56° C | 40% | 1017.4 hPa | 0 mm | - | - | - |
| 1777832102 | 21.11° C | 44% | 1018.5 hPa | 0 mm | - | - | - |
| 1777831504 | 20.56° C | 43% | 1018.5 hPa | 0 mm | - | - | - |
* Rain latest hour (hover to see other rain measurements)
** Current wind speed in m/s (hover to see current wind gust speed)